Time;durP1;ratioP1;P1;durP2;ratioP2;P2;SDS_P1;SDS_P2;PMS_P1;PMS_P2;Temp;Humidity;BMP_temperature;BMP_pressure;BME280_temperature;BME280_humidity;BME280_pressure;Samples;Min_cycle;Max_cycle;Signal;HPM_P1;HPM_P2
2023/10/08 00:02:11;;;;;;;;;;;15.50;99.90;;;;;;2622577;47;19938;-79
2023/10/08 00:04:44;;;;;;;;;;;15.50;99.90;;;;;;2622588;54;19950;-78
2023/10/08 00:07:13;;;;;;;;;;;15.50;99.90;;;;;;2621533;46;19947;-79
2023/10/08 00:09:44;;;;;;;;;;;15.50;99.90;;;;;;2621864;54;19954;-78
2023/10/08 00:12:16;;;;;;;;;;;15.50;99.90;;;;;;2623015;54;19950;-79
2023/10/08 00:14:49;;;;;;;;;;;15.50;99.90;;;;;;2622563;47;20049;-79
2023/10/08 00:17:21;;;;;;;;;;;15.50;99.90;;;;;;2624145;47;19991;-77
2023/10/08 00:19:52;;;;;;;;;;;15.50;99.90;;;;;;2623665;54;19938;-77
2023/10/08 00:22:24;;;;;;;;;;;15.60;99.90;;;;;;2625048;54;19946;-79
2023/10/08 00:24:58;;;;;;;;;;;15.70;99.90;;;;;;2624728;47;19995;-79
2023/10/08 00:27:28;;;;;;;;;;;15.70;99.90;;;;;;2625215;47;19946;-78
2023/10/08 00:29:59;;;;;;;;;;;15.80;99.90;;;;;;2624517;47;19939;-78
2023/10/08 00:32:35;;;;;;;;;;;15.90;99.90;;;;;;2624067;39;20374;-77
2023/10/08 00:35:13;;;;;;;;;;;15.90;99.90;;;;;;2623228;47;20038;-77
2023/10/08 00:37:44;;;;;;;;;;;16.00;99.90;;;;;;2622034;47;20061;-77
2023/10/08 00:40:21;;;;;;;;;;;16.20;99.90;;;;;;2621252;54;19956;-78
2023/10/08 00:42:56;;;;;;;;;;;16.10;99.90;;;;;;2622116;47;19939;-79
2023/10/08 00:45:30;;;;;;;;;;;16.10;99.90;;;;;;2622059;47;19953;-78
2023/10/08 00:48:02;;;;;;;;;;;16.20;99.90;;;;;;2622298;54;20550;-80
2023/10/08 00:50:42;;;;;;;;;;;16.20;99.90;;;;;;2622204;47;19947;-79
2023/10/08 00:53:17;;;;;;;;;;;16.20;99.90;;;;;;2622410;39;20532;-77
2023/10/08 00:55:53;;;;;;;;;;;16.20;99.90;;;;;;2621911;54;19947;-78
2023/10/08 00:58:27;;;;;;;;;;;16.30;99.90;;;;;;2621845;31;20408;-78
2023/10/08 01:01:00;;;;;;;;;;;16.30;99.90;;;;;;2623117;47;19950;-78
2023/10/08 01:03:35;;;;;;;;;;;16.30;99.90;;;;;;2623853;47;19950;-78
2023/10/08 01:06:09;;;;;;;;;;;16.30;99.90;;;;;;2627535;47;19947;-79
2023/10/08 01:08:47;;;;;;;;;;;16.30;99.90;;;;;;2623341;54;19938;-77
2023/10/08 01:11:21;;;;;;;;;;;16.30;99.90;;;;;;2621197;54;19994;-79
2023/10/08 01:13:54;;;;;;;;;;;16.30;99.90;;;;;;2621768;47;19938;-78
2023/10/08 01:16:25;;;;;;;;;;;16.40;99.90;;;;;;2622869;54;19953;-77
2023/10/08 01:19:00;;;;;;;;;;;16.30;99.90;;;;;;2622436;47;19954;-77
2023/10/08 01:21:39;;;;;;;;;;;16.30;99.90;;;;;;2623321;47;19942;-77
2023/10/08 01:24:16;;;;;;;;;;;16.40;99.90;;;;;;2624572;39;20464;-78
2023/10/08 01:26:46;;;;;;;;;;;16.30;99.90;;;;;;2623592;46;19982;-78
2023/10/08 01:29:21;;;;;;;;;;;16.40;99.90;;;;;;2622239;54;20044;-79
2023/10/08 01:31:53;;;;;;;;;;;16.40;99.90;;;;;;2621204;46;19951;-79
2023/10/08 01:34:27;;;;;;;;;;;16.40;99.90;;;;;;2620399;47;19947;-78
2023/10/08 01:37:01;;;;;;;;;;;16.40;99.90;;;;;;2620428;54;20423;-78
2023/10/08 01:39:33;;;;;;;;;;;16.40;99.90;;;;;;2620583;46;19939;-79
2023/10/08 01:42:05;;;;;;;;;;;16.40;99.90;;;;;;2621438;47;20030;-78
2023/10/08 01:44:35;;;;;;;;;;;16.40;99.90;;;;;;2622278;47;19968;-77
2023/10/08 01:47:06;;;;;;;;;;;16.40;99.90;;;;;;2622964;54;19946;-77
2023/10/08 01:49:39;;;;;;;;;;;16.30;99.90;;;;;;2623716;46;19979;-77
2023/10/08 01:52:13;;;;;;;;;;;16.30;99.90;;;;;;2625757;47;20459;-77
2023/10/08 01:54:47;;;;;;;;;;;16.30;99.90;;;;;;2626405;47;19973;-78
2023/10/08 01:57:16;;;;;;;;;;;16.30;99.90;;;;;;2624286;54;19945;-77
2023/10/08 01:59:47;;;;;;;;;;;16.30;99.90;;;;;;2625945;47;20432;-77
2023/10/08 02:02:17;;;;;;;;;;;16.30;99.90;;;;;;2623038;39;20375;-77
2023/10/08 02:04:47;;;;;;;;;;;16.30;99.90;;;;;;2622274;47;19987;-77
2023/10/08 02:07:17;;;;;;;;;;;16.30;99.90;;;;;;2622887;54;19938;-77
2023/10/08 02:09:50;;;;;;;;;;;16.40;99.90;;;;;;2626305;39;20380;-76
2023/10/08 02:12:19;;;;;;;;;;;16.60;99.90;;;;;;2622907;46;19973;-76
2023/10/08 02:14:49;;;;;;;;;;;16.40;99.90;;;;;;2621151;47;20435;-76
2023/10/08 02:17:19;;;;;;;;;;;16.50;99.90;;;;;;2622465;54;19962;-79
2023/10/08 02:19:49;;;;;;;;;;;16.60;99.90;;;;;;2623291;47;20042;-79
2023/10/08 02:22:19;;;;;;;;;;;16.60;99.90;;;;;;2622648;47;19953;-76
2023/10/08 02:24:53;;;;;;;;;;;16.60;99.90;;;;;;2623322;47;19999;-79
2023/10/08 02:27:23;;;;;;;;;;;16.70;99.90;;;;;;2624247;47;19947;-78
2023/10/08 02:29:52;;;;;;;;;;;16.70;99.90;;;;;;2624665;54;19963;-77
2023/10/08 02:32:23;;;;;;;;;;;16.80;99.90;;;;;;2623847;47;19958;-79
2023/10/08 02:34:53;;;;;;;;;;;16.80;99.90;;;;;;2624078;54;19939;-77
2023/10/08 02:37:23;;;;;;;;;;;16.90;99.90;;;;;;2624102;47;19974;-78
2023/10/08 02:39:57;;;;;;;;;;;16.90;99.90;;;;;;2624203;47;19973;-77
2023/10/08 02:42:27;;;;;;;;;;;17.00;99.90;;;;;;2626962;47;19946;-76
2023/10/08 02:45:00;;;;;;;;;;;17.00;99.90;;;;;;2626740;39;20375;-77
2023/10/08 02:47:31;;;;;;;;;;;17.00;99.90;;;;;;2623936;47;19979;-78
2023/10/08 02:50:07;;;;;;;;;;;17.00;99.90;;;;;;2623736;54;19946;-78
2023/10/08 02:52:37;;;;;;;;;;;17.00;99.90;;;;;;2623315;47;19939;-78
2023/10/08 02:55:23;;;;;;;;;;;17.00;99.90;;;;;;2623701;54;19994;-77
2023/10/08 02:57:53;;;;;;;;;;;17.00;99.90;;;;;;2623550;47;19954;-78
2023/10/08 03:00:29;;;;;;;;;;;17.00;99.90;;;;;;2621900;47;19939;-77
2023/10/08 03:03:01;;;;;;;;;;;17.00;99.90;;;;;;2623277;47;20034;-77
2023/10/08 03:05:35;;;;;;;;;;;17.00;99.90;;;;;;2622702;54;19983;-77
2023/10/08 03:08:10;;;;;;;;;;;17.00;99.90;;;;;;2622442;47;19995;-77
2023/10/08 03:10:44;;;;;;;;;;;17.00;99.90;;;;;;2622337;47;19956;-78
2023/10/08 03:13:14;;;;;;;;;;;17.00;99.90;;;;;;2624489;47;19995;-77
2023/10/08 03:15:58;;;;;;;;;;;17.00;99.90;;;;;;2623781;47;19981;-77
2023/10/08 03:18:42;;;;;;;;;;;17.00;99.90;;;;;;2622495;47;19939;-77
2023/10/08 03:21:20;;;;;;;;;;;17.00;99.90;;;;;;2622342;54;19947;-78
2023/10/08 03:23:58;;;;;;;;;;;17.00;99.90;;;;;;2622938;47;19939;-76
2023/10/08 03:26:38;;;;;;;;;;;17.10;99.90;;;;;;2623602;46;19938;-77
2023/10/08 03:29:14;;;;;;;;;;;17.10;99.90;;;;;;2623732;54;19981;-78
2023/10/08 03:31:49;;;;;;;;;;;17.10;99.90;;;;;;2624095;54;19967;-77
2023/10/08 03:34:27;;;;;;;;;;;17.10;99.90;;;;;;2622549;47;19953;-77
2023/10/08 03:37:05;;;;;;;;;;;17.10;99.90;;;;;;2623778;47;20496;-77
2023/10/08 03:42:25;;;;;;;;;;;17.10;99.90;;;;;;2624095;39;20413;-77
2023/10/08 03:44:56;;;;;;;;;;;17.10;99.90;;;;;;2622583;47;20755;-76
2023/10/08 05:08:58;;;;;;;;;;;17.10;99.90;;;;;;2614024;39;21307;-75
2023/10/08 05:11:45;;;;;;;;;;;16.70;99.90;;;;;;2617036;47;19939;-74
2023/10/08 05:14:28;;;;;;;;;;;16.70;99.90;;;;;;2617579;54;19938;-74
2023/10/08 05:17:00;;;;;;;;;;;16.70;99.90;;;;;;2619641;39;20404;-75
2023/10/08 05:22:40;;;;;;;;;;;16.70;99.90;;;;;;2616633;54;19954;-73
2023/10/08 05:25:24;;;;;;;;;;;16.70;99.90;;;;;;2618066;54;19939;-73
2023/10/08 05:28:09;;;;;;;;;;;16.70;99.90;;;;;;2618110;47;19946;-74
2023/10/08 05:30:41;;;;;;;;;;;16.70;99.90;;;;;;2618841;39;20407;-73
2023/10/08 05:36:10;;;;;;;;;;;16.70;99.90;;;;;;2618194;54;20489;-75
2023/10/08 05:41:38;;;;;;;;;;;16.70;99.90;;;;;;2616378;54;19947;-74
2023/10/08 05:44:23;;;;;;;;;;;16.70;99.90;;;;;;2617216;47;19953;-73
2023/10/08 05:47:06;;;;;;;;;;;16.70;99.90;;;;;;2617115;47;20434;-75
2023/10/08 05:49:53;;;;;;;;;;;16.70;99.90;;;;;;2617233;47;20706;-74
2023/10/08 05:52:41;;;;;;;;;;;16.70;99.90;;;;;;2616211;54;19947;-74
2023/10/08 05:58:13;;;;;;;;;;;16.60;99.90;;;;;;2617659;47;19950;-73
2023/10/08 06:01:04;;;;;;;;;;;16.60;99.90;;;;;;2617692;39;20366;-73
2023/10/08 06:03:36;;;;;;;;;;;16.60;99.90;;;;;;2618685;47;20037;-72
2023/10/08 06:09:06;;;;;;;;;;;16.60;99.90;;;;;;2616240;54;19946;-71
2023/10/08 06:11:41;;;;;;;;;;;16.60;99.90;;;;;;2617583;47;19993;-73
2023/10/08 06:14:16;;;;;;;;;;;16.50;99.90;;;;;;2617136;47;20448;-73
2023/10/08 06:16:44;;;;;;;;;;;16.60;99.90;;;;;;2617501;54;20041;-73
2023/10/08 06:19:14;;;;;;;;;;;16.50;99.90;;;;;;2617359;47;20433;-72
2023/10/08 06:21:42;;;;;;;;;;;16.50;99.90;;;;;;2616589;54;19939;-72
2023/10/08 06:24:16;;;;;;;;;;;16.50;99.90;;;;;;2616213;47;20434;-73
2023/10/08 06:26:48;;;;;;;;;;;16.50;99.90;;;;;;2617977;54;19953;-72
2023/10/08 06:29:27;;;;;;;;;;;16.50;99.90;;;;;;2617308;47;19939;-72
2023/10/08 06:32:01;;;;;;;;;;;16.50;99.90;;;;;;2616697;54;19950;-73
2023/10/08 06:34:31;;;;;;;;;;;16.50;99.90;;;;;;2617636;47;19947;-73
2023/10/08 06:37:03;;;;;;;;;;;16.50;99.90;;;;;;2617134;47;20087;-73
2023/10/08 06:39:47;;;;;;;;;;;16.50;99.90;;;;;;2616545;54;20465;-72
2023/10/08 06:42:17;;;;;;;;;;;16.50;99.90;;;;;;2616796;47;19939;-72
2023/10/08 06:44:52;;;;;;;;;;;16.50;99.90;;;;;;2617210;47;19938;-71
2023/10/08 06:47:23;;;;;;;;;;;16.50;99.90;;;;;;2614712;31;20529;-74
2023/10/08 06:49:53;;;;;;;;;;;16.60;99.90;;;;;;2602474;54;19953;-70
2023/10/08 06:52:26;;;;;;;;;;;16.60;99.90;;;;;;2605627;54;19954;-70
2023/10/08 06:54:56;;;;;;;;;;;16.70;99.90;;;;;;2606486;47;19958;-71
2023/10/08 06:57:26;;;;;;;;;;;16.70;99.90;;;;;;2606847;47;19962;-71
2023/10/08 06:59:59;;;;;;;;;;;16.80;99.90;;;;;;2606957;54;19950;-70
2023/10/08 07:02:30;;;;;;;;;;;16.80;99.90;;;;;;2607485;54;19958;-72
2023/10/08 07:05:00;;;;;;;;;;;16.90;99.90;;;;;;2606442;54;19994;-71
2023/10/08 07:07:32;;;;;;;;;;;16.90;99.90;;;;;;2606451;39;20293;-71
2023/10/08 07:10:05;;;;;;;;;;;17.00;99.90;;;;;;2606178;47;19947;-72
2023/10/08 07:12:35;;;;;;;;;;;17.00;99.90;;;;;;2607085;47;19946;-72
2023/10/08 07:15:12;;;;;;;;;;;16.90;99.90;;;;;;2606093;47;20083;-73
2023/10/08 07:17:43;;;;;;;;;;;16.90;99.90;;;;;;2607602;54;20484;-71
2023/10/08 07:20:21;;;;;;;;;;;16.90;99.90;;;;;;2606247;46;19953;-72
2023/10/08 07:22:54;;;;;;;;;;;16.90;99.90;;;;;;2607389;47;20489;-71
2023/10/08 07:25:24;;;;;;;;;;;16.90;99.90;;;;;;2607019;47;20493;-72
2023/10/08 07:27:53;;;;;;;;;;;16.90;99.90;;;;;;2607104;54;19953;-72
2023/10/08 07:30:32;;;;;;;;;;;16.90;99.90;;;;;;2606427;54;19946;-71
2023/10/08 07:33:03;;;;;;;;;;;16.90;99.90;;;;;;2605939;47;20472;-71
2023/10/08 07:35:38;;;;;;;;;;;16.90;99.90;;;;;;2607191;54;20497;-71
2023/10/08 07:38:09;;;;;;;;;;;16.90;99.90;;;;;;2606146;47;19954;-72
2023/10/08 07:40:39;;;;;;;;;;;16.90;99.90;;;;;;2607050;54;19953;-71
2023/10/08 07:43:09;;;;;;;;;;;16.90;99.90;;;;;;2606182;47;19946;-73
2023/10/08 07:45:45;;;;;;;;;;;17.00;99.90;;;;;;2606737;50;19962;-72
2023/10/08 07:48:15;;;;;;;;;;;17.00;99.90;;;;;;2605967;54;19967;-72
2023/10/08 07:50:46;;;;;;;;;;;17.00;99.90;;;;;;2606864;54;19946;-74
2023/10/08 07:53:17;;;;;;;;;;;17.00;99.90;;;;;;2606985;48;20019;-74
2023/10/08 07:55:49;;;;;;;;;;;17.00;99.90;;;;;;2605848;47;19957;-72
2023/10/08 07:58:20;;;;;;;;;;;17.10;99.90;;;;;;2607711;54;19954;-74
2023/10/08 08:00:56;;;;;;;;;;;17.10;99.90;;;;;;2608014;39;20367;-74
2023/10/08 08:03:26;;;;;;;;;;;17.10;99.90;;;;;;2606753;46;20811;-72
2023/10/08 08:05:58;;;;;;;;;;;17.10;99.90;;;;;;2605637;47;19947;-73
2023/10/08 08:08:31;;;;;;;;;;;18.50;99.90;;;;;;2603995;47;19958;-72
2023/10/08 08:11:05;;;;;;;;;;;17.20;99.90;;;;;;2596722;54;20030;-73
2023/10/08 08:13:35;;;;;;;;;;;17.20;99.90;;;;;;2607763;54;19970;-75
2023/10/08 08:16:20;;;;;;;;;;;17.30;99.90;;;;;;2606895;47;19947;-73
2023/10/08 08:18:55;;;;;;;;;;;17.30;99.90;;;;;;2606263;47;20537;-73
2023/10/08 08:21:35;;;;;;;;;;;17.40;99.90;;;;;;2603643;49;19946;-78
2023/10/08 08:24:28;;;;;;;;;;;17.40;99.90;;;;;;2606046;54;19946;-76
2023/10/08 08:27:11;;;;;;;;;;;17.40;99.90;;;;;;2606318;47;21059;-74
2023/10/08 08:29:48;;;;;;;;;;;17.50;99.90;;;;;;2607408;47;20373;-74
2023/10/08 08:32:21;;;;;;;;;;;17.60;99.90;;;;;;2605543;54;19947;-74
2023/10/08 08:34:52;;;;;;;;;;;17.60;99.90;;;;;;2606798;47;19953;-74
2023/10/08 08:37:29;;;;;;;;;;;17.60;99.90;;;;;;2607803;39;20305;-72
2023/10/08 08:40:00;;;;;;;;;;;17.60;99.90;;;;;;2607635;54;19952;-73
2023/10/08 08:42:31;;;;;;;;;;;17.70;99.90;;;;;;2606141;47;20442;-74
2023/10/08 08:45:03;;;;;;;;;;;17.70;99.90;;;;;;2606835;47;19954;-76
2023/10/08 08:47:35;;;;;;;;;;;17.70;99.90;;;;;;2606703;47;19953;-73
2023/10/08 08:50:08;;;;;;;;;;;17.80;99.90;;;;;;2606110;39;20381;-72
2023/10/08 08:52:39;;;;;;;;;;;17.90;99.90;;;;;;2605819;54;20034;-74
2023/10/08 08:55:14;;;;;;;;;;;17.90;99.90;;;;;;2606745;54;19946;-73
2023/10/08 08:57:44;;;;;;;;;;;17.90;99.90;;;;;;2604940;54;20481;-71
2023/10/08 09:00:16;;;;;;;;;;;18.00;99.90;;;;;;2610733;47;19946;-71
2023/10/08 09:02:50;;;;;;;;;;;18.00;99.90;;;;;;2614002;47;19970;-75
2023/10/08 09:05:26;;;;;;;;;;;18.00;99.90;;;;;;2615662;47;19977;-73
2023/10/08 09:07:58;;;;;;;;;;;18.10;99.90;;;;;;2615737;39;20365;-73
2023/10/08 09:10:29;;;;;;;;;;;18.10;99.90;;;;;;2614642;47;19954;-71
2023/10/08 09:13:00;;;;;;;;;;;18.10;99.90;;;;;;2617070;54;19950;-72
2023/10/08 09:15:32;;;;;;;;;;;18.10;99.90;;;;;;2614987;47;19938;-71
2023/10/08 09:18:05;;;;;;;;;;;18.10;99.90;;;;;;2617091;54;19971;-75
2023/10/08 09:20:42;;;;;;;;;;;18.10;99.90;;;;;;2615881;47;19942;-72
2023/10/08 09:23:14;;;;;;;;;;;18.20;99.90;;;;;;2616009;54;19958;-72
2023/10/08 09:25:44;;;;;;;;;;;18.20;99.90;;;;;;2615982;54;20445;-69
2023/10/08 09:28:15;;;;;;;;;;;18.30;99.90;;;;;;2616644;49;19946;-69
2023/10/08 09:30:45;;;;;;;;;;;18.40;99.90;;;;;;2616356;54;19939;-68
2023/10/08 09:33:18;;;;;;;;;;;18.50;99.90;;;;;;2616552;47;20445;-69
2023/10/08 09:35:49;;;;;;;;;;;18.60;99.90;;;;;;2611292;39;20407;-71
2023/10/08 09:38:23;;;;;;;;;;;18.70;99.90;;;;;;2603735;47;20446;-68
2023/10/08 09:40:54;;;;;;;;;;;18.80;99.90;;;;;;2606039;39;20343;-69
2023/10/08 09:43:25;;;;;;;;;;;18.80;99.90;;;;;;2605993;47;20323;-69
2023/10/08 09:46:03;;;;;;;;;;;18.80;99.90;;;;;;2605899;47;19953;-72
2023/10/08 09:48:37;;;;;;;;;;;18.90;99.90;;;;;;2606370;54;19970;-70
2023/10/08 09:51:08;;;;;;;;;;;18.90;99.90;;;;;;2605560;47;20030;-73
2023/10/08 09:53:42;;;;;;;;;;;18.90;99.90;;;;;;2605656;47;19946;-70
2023/10/08 09:56:17;;;;;;;;;;;18.90;99.90;;;;;;2605841;47;20061;-71
2023/10/08 09:58:49;;;;;;;;;;;19.00;99.90;;;;;;2605191;47;20034;-71
2023/10/08 10:01:19;;;;;;;;;;;19.00;99.90;;;;;;2605030;47;20476;-73
2023/10/08 10:03:52;;;;;;;;;;;19.10;99.90;;;;;;2604581;47;19946;-74
2023/10/08 10:06:22;;;;;;;;;;;18.70;99.90;;;;;;2604699;39;20481;-71
2023/10/08 10:08:52;;;;;;;;;;;19.30;99.90;;;;;;2604971;47;19957;-71
2023/10/08 10:11:23;;;;;;;;;;;19.30;99.90;;;;;;2604847;54;19951;-74
2023/10/08 10:13:54;;;;;;;;;;;19.30;99.90;;;;;;2605466;47;20357;-73
2023/10/08 10:16:24;;;;;;;;;;;19.30;99.90;;;;;;2604349;54;19950;-70
2023/10/08 10:18:57;;;;;;;;;;;19.30;99.90;;;;;;2605593;54;19946;-71
2023/10/08 10:21:28;;;;;;;;;;;19.30;99.90;;;;;;2604979;49;19946;-73
2023/10/08 10:23:59;;;;;;;;;;;19.40;99.90;;;;;;2604415;39;20180;-77
2023/10/08 10:26:30;;;;;;;;;;;19.40;99.90;;;;;;2605428;54;19954;-76
2023/10/08 10:29:14;;;;;;;;;;;19.60;99.90;;;;;;2605856;47;19954;-75
2023/10/08 10:31:46;;;;;;;;;;;19.50;99.90;;;;;;2605397;54;20514;-74
2023/10/08 10:34:19;;;;;;;;;;;19.50;99.90;;;;;;2605072;47;19947;-76
2023/10/08 10:36:55;;;;;;;;;;;19.60;99.90;;;;;;2606064;50;19947;-77
2023/10/08 10:39:30;;;;;;;;;;;19.70;99.90;;;;;;2605795;54;19947;-77
2023/10/08 10:42:05;;;;;;;;;;;19.80;99.90;;;;;;2606225;54;19946;-74
2023/10/08 10:44:38;;;;;;;;;;;19.90;99.90;;;;;;2606028;39;20167;-74
2023/10/08 10:50:10;;;;;;;;;;;20.20;99.90;;;;;;2608787;54;19938;-74
2023/10/08 10:52:44;;;;;;;;;;;20.40;99.90;;;;;;2615342;39;20327;-73
2023/10/08 10:55:31;;;;;;;;;;;20.60;99.90;;;;;;2617693;54;20419;-76
2023/10/08 10:58:11;;;;;;;;;;;20.80;99.90;;;;;;2617831;47;19946;-78
2023/10/08 11:00:57;;;;;;;;;;;21.00;99.90;;;;;;2618869;47;19987;-75
2023/10/08 11:03:25;;;;;;;;;;;21.10;99.90;;;;;;2617507;47;19946;-75
2023/10/08 11:05:59;;;;;;;;;;;21.20;99.90;;;;;;2617182;54;19954;-75
2023/10/08 11:08:34;;;;;;;;;;;21.30;99.90;;;;;;2617301;47;19938;-77
2023/10/08 11:11:09;;;;;;;;;;;21.50;99.90;;;;;;2618606;47;19947;-78
2023/10/08 11:13:42;;;;;;;;;;;21.60;99.90;;;;;;2618196;54;19946;-77
2023/10/08 11:16:13;;;;;;;;;;;21.70;99.90;;;;;;2618033;54;19986;-77
2023/10/08 11:18:50;;;;;;;;;;;21.80;99.90;;;;;;2618129;39;20425;-79
2023/10/08 11:21:25;;;;;;;;;;;21.90;99.90;;;;;;2618247;47;19939;-76
2023/10/08 11:23:55;;;;;;;;;;;21.90;99.90;;;;;;2618189;54;19987;-77
2023/10/08 11:26:33;;;;;;;;;;;21.90;99.90;;;;;;2618468;46;19958;-77
2023/10/08 11:29:03;;;;;;;;;;;21.90;99.90;;;;;;2619095;31;20453;-77
2023/10/08 11:31:35;;;;;;;;;;;21.90;99.90;;;;;;2618417;47;20439;-76
2023/10/08 11:34:08;;;;;;;;;;;21.90;99.90;;;;;;2621036;47;19953;-78
2023/10/08 11:36:53;;;;;;;;;;;21.90;99.90;;;;;;2618971;54;19947;-78
2023/10/08 11:39:30;;;;;;;;;;;21.80;99.90;;;;;;2616227;54;19955;-77
2023/10/08 11:42:03;;;;;;;;;;;21.70;99.90;;;;;;2617711;31;20439;-78
2023/10/08 11:44:35;;;;;;;;;;;21.70;99.90;;;;;;2617240;47;19954;-78
2023/10/08 11:47:21;;;;;;;;;;;21.60;99.90;;;;;;2617855;54;19953;-77
2023/10/08 11:50:09;;;;;;;;;;;21.60;99.90;;;;;;2619158;54;19974;-76
2023/10/08 11:52:42;;;;;;;;;;;21.60;99.90;;;;;;2618365;47;19950;-74
2023/10/08 11:55:18;;;;;;;;;;;21.60;99.90;;;;;;2614309;47;19973;-75
2023/10/08 11:57:49;;;;;;;;;;;21.50;99.90;;;;;;2616244;54;19947;-78
2023/10/08 12:00:25;;;;;;;;;;;21.50;99.90;;;;;;2615286;54;19975;-76
2023/10/08 12:03:05;;;;;;;;;;;21.50;99.90;;;;;;2616396;46;20506;-78
2023/10/08 12:05:35;;;;;;;;;;;21.40;99.90;;;;;;2611223;54;19947;-73
2023/10/08 12:08:09;;;;;;;;;;;21.40;99.90;;;;;;2611345;54;19947;-73
2023/10/08 12:10:40;;;;;;;;;;;21.40;99.90;;;;;;2615397;54;19947;-72
2023/10/08 12:13:10;;;;;;;;;;;21.40;99.90;;;;;;2615813;54;19999;-73
2023/10/08 12:15:41;;;;;;;;;;;21.50;99.90;;;;;;2612430;54;19947;-73
2023/10/08 12:18:15;;;;;;;;;;;21.50;99.90;;;;;;2611296;54;19954;-72
2023/10/08 12:20:47;;;;;;;;;;;21.60;99.90;;;;;;2610392;47;20013;-71
2023/10/08 12:23:24;;;;;;;;;;;21.70;99.90;;;;;;2609901;54;20041;-72
2023/10/08 12:25:55;;;;;;;;;;;21.90;99.90;;;;;;2611130;47;19963;-73
2023/10/08 12:28:26;;;;;;;;;;;22.00;99.90;;;;;;2611744;46;19939;-73
2023/10/08 12:30:56;;;;;;;;;;;22.20;99.90;;;;;;2611328;47;19950;-73
2023/10/08 12:33:28;;;;;;;;;;;22.40;99.90;;;;;;2610906;46;19938;-73
2023/10/08 12:36:10;;;;;;;;;;;22.60;99.90;;;;;;2610838;47;20428;-72
2023/10/08 12:38:44;;;;;;;;;;;22.80;99.90;;;;;;2610389;54;19954;-72
2023/10/08 12:41:12;;;;;;;;;;;23.10;99.90;;;;;;2610053;47;19938;-72
2023/10/08 12:43:42;;;;;;;;;;;23.40;99.90;;;;;;2610480;54;19955;-73
2023/10/08 12:46:17;;;;;;;;;;;23.60;99.90;;;;;;2610707;47;19977;-73
2023/10/08 12:48:52;;;;;;;;;;;23.80;99.90;;;;;;2611723;54;19946;-73
2023/10/08 12:51:31;;;;;;;;;;;23.90;99.90;;;;;;2612031;31;20442;-78
2023/10/08 12:54:10;;;;;;;;;;;24.10;99.90;;;;;;2614384;47;20431;-74
2023/10/08 12:56:44;;;;;;;;;;;24.20;99.90;;;;;;2611138;47;19947;-74
2023/10/08 12:59:20;;;;;;;;;;;24.40;99.90;;;;;;2612425;54;19958;-74
2023/10/08 13:01:54;;;;;;;;;;;24.40;99.90;;;;;;2604949;36;19946;-75
2023/10/08 13:04:27;;;;;;;;;;;24.60;99.90;;;;;;2611725;54;19953;-73
2023/10/08 13:07:01;;;;;;;;;;;24.60;99.90;;;;;;2610750;54;19950;-74
2023/10/08 13:09:36;;;;;;;;;;;24.60;99.90;;;;;;2610908;47;19947;-74
2023/10/08 13:12:10;;;;;;;;;;;24.60;99.90;;;;;;2610613;47;19946;-74
2023/10/08 13:14:40;;;;;;;;;;;24.60;99.90;;;;;;2611376;47;20007;-74
2023/10/08 13:17:10;;;;;;;;;;;24.60;99.90;;;;;;2611104;47;20489;-74
2023/10/08 13:19:40;;;;;;;;;;;24.50;99.90;;;;;;2611071;54;20038;-74
2023/10/08 13:22:14;;;;;;;;;;;24.40;99.90;;;;;;2609579;54;19946;-74
2023/10/08 13:24:48;;;;;;;;;;;24.30;99.90;;;;;;2610417;47;20068;-74
2023/10/08 13:27:18;;;;;;;;;;;24.20;99.90;;;;;;2610585;47;19946;-75
2023/10/08 13:29:48;;;;;;;;;;;24.20;99.90;;;;;;2611172;54;19957;-74
2023/10/08 13:32:19;;;;;;;;;;;24.10;99.90;;;;;;2611296;47;19950;-83
2023/10/08 13:34:49;;;;;;;;;;;24.10;99.90;;;;;;2610882;54;20018;-76
2023/10/08 13:37:19;;;;;;;;;;;24.00;99.90;;;;;;2611694;47;20001;-76
2023/10/08 13:39:52;;;;;;;;;;;24.00;99.90;;;;;;2613949;54;19950;-76
2023/10/08 13:42:22;;;;;;;;;;;23.80;99.90;;;;;;2611351;47;20004;-76
2023/10/08 13:44:52;;;;;;;;;;;23.80;99.90;;;;;;2611854;47;20455;-76
2023/10/08 13:47:25;;;;;;;;;;;23.70;99.90;;;;;;2613565;47;19997;-77
2023/10/08 13:49:57;;;;;;;;;;;23.60;99.90;;;;;;2620103;47;19985;-78
2023/10/08 13:52:27;;;;;;;;;;;23.50;99.90;;;;;;2614766;47;19947;-76
2023/10/08 13:54:59;;;;;;;;;;;23.40;99.90;;;;;;2612317;46;20450;-76
2023/10/08 13:57:32;;;;;;;;;;;23.40;99.90;;;;;;2612546;47;19947;-76
2023/10/08 14:00:12;;;;;;;;;;;23.30;99.90;;;;;;2613366;54;19950;-75
2023/10/08 14:02:42;;;;;;;;;;;23.20;99.90;;;;;;2612533;54;20766;-76
2023/10/08 14:05:15;;;;;;;;;;;23.10;99.90;;;;;;2612449;47;19947;-76
2023/10/08 14:07:48;;;;;;;;;;;23.00;99.90;;;;;;2612137;47;20072;-75
2023/10/08 14:10:29;;;;;;;;;;;22.90;99.90;;;;;;2613146;54;20046;-74
2023/10/08 14:13:01;;;;;;;;;;;22.80;99.90;;;;;;2612993;54;21192;-74
2023/10/08 14:15:32;;;;;;;;;;;22.70;99.90;;;;;;2611919;54;20796;-74
2023/10/08 14:18:07;;;;;;;;;;;22.70;99.90;;;;;;2611128;47;19946;-74
2023/10/08 14:20:40;;;;;;;;;;;22.70;99.90;;;;;;2611523;39;20096;-74
2023/10/08 14:23:10;;;;;;;;;;;22.70;99.90;;;;;;2615906;54;20065;-75
2023/10/08 14:25:44;;;;;;;;;;;22.80;99.90;;;;;;2614411;54;20003;-76
2023/10/08 14:28:21;;;;;;;;;;;23.00;99.90;;;;;;2616241;54;19958;-72
2023/10/08 14:30:55;;;;;;;;;;;23.20;99.90;;;;;;2617725;47;20056;-72
2023/10/08 14:33:31;;;;;;;;;;;23.30;99.90;;;;;;2617065;54;19943;-74
2023/10/08 14:44:11;;;;;;;;;;;24.40;99.90;;;;;;2618333;39;20367;-72
2023/10/08 14:46:40;;;;;;;;;;;24.90;99.90;;;;;;2616357;54;19945;-73
2023/10/08 14:49:10;;;;;;;;;;;25.70;99.90;;;;;;2617454;54;19939;-72
2023/10/08 14:51:41;;;;;;;;;;;26.00;99.90;;;;;;2616612;54;19947;-72
2023/10/08 14:54:11;;;;;;;;;;;25.90;99.90;;;;;;2617318;39;20369;-71
2023/10/08 14:56:44;;;;;;;;;;;26.00;99.90;;;;;;2617240;54;19938;-70
2023/10/08 14:59:15;;;;;;;;;;;26.40;99.90;;;;;;2616475;39;20431;-72
2023/10/08 15:01:47;;;;;;;;;;;26.80;99.90;;;;;;2616621;54;19950;-72
2023/10/08 15:04:18;;;;;;;;;;;27.00;99.90;;;;;;2617521;54;19947;-74
2023/10/08 15:06:48;;;;;;;;;;;27.00;99.90;;;;;;2617696;39;20345;-72
2023/10/08 15:09:21;;;;;;;;;;;26.90;99.90;;;;;;2617962;39;20381;-72
2023/10/08 15:11:57;;;;;;;;;;;26.70;99.90;;;;;;2616561;54;19966;-75
2023/10/08 15:14:27;;;;;;;;;;;26.50;99.90;;;;;;2616957;54;20075;-73
2023/10/08 15:16:57;;;;;;;;;;;26.40;99.90;;;;;;2617099;54;19946;-73
2023/10/08 15:19:27;;;;;;;;;;;26.20;99.90;;;;;;2618997;54;19939;-75
2023/10/08 15:21:58;;;;;;;;;;;26.00;99.90;;;;;;2617982;54;19947;-75
2023/10/08 15:24:29;;;;;;;;;;;25.80;99.90;;;;;;2617900;47;19946;-74
2023/10/08 15:27:02;;;;;;;;;;;25.60;99.90;;;;;;2619019;47;19945;-75
2023/10/08 15:29:33;;;;;;;;;;;25.40;99.90;;;;;;2619280;39;20333;-75
2023/10/08 15:32:03;;;;;;;;;;;25.20;99.90;;;;;;2618626;54;19957;-75
2023/10/08 15:34:33;;;;;;;;;;;25.00;99.90;;;;;;2618654;54;19953;-74
2023/10/08 15:37:09;;;;;;;;;;;24.80;99.90;;;;;;2618392;54;19946;-74
2023/10/08 15:39:40;;;;;;;;;;;24.50;99.90;;;;;;2618675;54;19951;-75
2023/10/08 15:42:12;;;;;;;;;;;24.40;99.90;;;;;;2624425;54;20466;-74
2023/10/08 15:44:42;;;;;;;;;;;24.30;99.90;;;;;;2625615;53;19950;-74
2023/10/08 15:47:12;;;;;;;;;;;24.10;99.90;;;;;;2622981;54;20745;-77
2023/10/08 15:49:42;;;;;;;;;;;24.00;99.90;;;;;;2621961;54;19953;-73
2023/10/08 15:52:14;;;;;;;;;;;23.80;99.90;;;;;;2617218;47;19975;-75
2023/10/08 15:54:45;;;;;;;;;;;23.70;99.90;;;;;;2618634;54;19969;-75
2023/10/08 15:57:18;;;;;;;;;;;23.60;99.90;;;;;;2618228;54;19954;-76
2023/10/08 15:59:47;;;;;;;;;;;23.50;99.90;;;;;;2618289;54;19938;-75
2023/10/08 16:02:18;;;;;;;;;;;23.40;99.90;;;;;;2621794;54;19946;-76
2023/10/08 16:04:47;;;;;;;;;;;23.30;99.90;;;;;;2619418;54;20060;-75
2023/10/08 16:07:17;;;;;;;;;;;23.10;99.90;;;;;;2618582;54;19999;-75
2023/10/08 16:09:47;;;;;;;;;;;23.00;99.90;;;;;;2617079;54;20545;-74
2023/10/08 16:12:20;;;;;;;;;;;22.80;99.90;;;;;;2617936;54;19947;-74
2023/10/08 16:14:49;;;;;;;;;;;22.70;99.90;;;;;;2618092;54;19954;-76
2023/10/08 16:17:19;;;;;;;;;;;22.60;99.90;;;;;;2618499;54;19951;-75
2023/10/08 16:19:49;;;;;;;;;;;22.40;99.90;;;;;;2617750;54;20038;-74
2023/10/08 16:22:19;;;;;;;;;;;22.30;99.90;;;;;;2616540;54;19946;-68
2023/10/08 16:24:49;;;;;;;;;;;22.20;99.90;;;;;;2617302;54;19953;-71
2023/10/08 16:27:22;;;;;;;;;;;22.10;99.90;;;;;;2618358;54;19947;-71
2023/10/08 16:29:55;;;;;;;;;;;22.00;99.90;;;;;;2618085;54;20017;-72
2023/10/08 16:32:26;;;;;;;;;;;22.00;99.90;;;;;;2618511;54;19947;-71
2023/10/08 16:34:56;;;;;;;;;;;21.80;99.90;;;;;;2618602;39;20382;-71
2023/10/08 16:37:25;;;;;;;;;;;21.70;99.90;;;;;;2617021;47;19958;-71
2023/10/08 16:39:56;;;;;;;;;;;21.70;99.90;;;;;;2618213;54;19946;-72
2023/10/08 16:42:28;;;;;;;;;;;21.60;99.90;;;;;;2618164;54;19939;-70